Time;durP1;ratioP1;P1;durP2;ratioP2;P2;SDS_P1;SDS_P2;PMS_P1;PMS_P2;Temp;Humidity;BMP_temperature;BMP_pressure;BME280_temperature;BME280_humidity;BME280_pressure;Samples;Min_cycle;Max_cycle;Signal;HPM_P1;HPM_P2
2023/10/09 00:03:03;;;;;;;0.00;0.00;;;;;;;12.88;42.13;100923.19;4474635;32;34784;-79
2023/10/09 00:08:19;;;;;;;4.53;0.93;;;;;;;12.70;41.23;100916.75;4471217;32;33873;-79
2023/10/09 00:10:57;;;;;;;0.17;0.17;;;;;;;12.93;41.37;100905.34;4459212;32;34322;-79
2023/10/09 00:13:30;;;;;;;0.00;0.00;;;;;;;12.94;41.63;100896.47;4463515;32;33681;-80
2023/10/09 00:16:14;;;;;;;0.00;0.00;;;;;;;13.35;40.93;100902.06;4461680;32;34111;-79
2023/10/09 00:18:46;;;;;;;0.28;0.20;;;;;;;13.32;41.31;100903.03;4461394;32;32530;-79
2023/10/09 00:21:20;;;;;;;0.13;0.13;;;;;;;13.04;41.67;100900.50;4475388;32;33919;-79
2023/10/09 00:23:53;;;;;;;0.10;0.10;;;;;;;13.16;41.06;100901.84;4474578;32;35032;-79
2023/10/09 00:26:22;;;;;;;0.20;0.20;;;;;;;13.26;40.87;100892.66;4461700;32;32641;-79
2023/10/09 00:28:51;;;;;;;0.00;0.00;;;;;;;13.39;40.81;100886.88;4472793;32;33919;-79
2023/10/09 00:31:33;;;;;;;0.95;0.37;;;;;;;13.34;40.58;100884.44;4461503;32;34768;-80
2023/10/09 00:34:18;;;;;;;0.13;0.08;;;;;;;13.23;39.97;100889.25;4473143;32;33625;-79
2023/10/09 00:36:53;;;;;;;0.90;0.52;;;;;;;13.54;39.92;100887.19;4463362;32;32855;-79
2023/10/09 00:39:43;;;;;;;0.13;0.13;;;;;;;13.99;40.22;100880.97;4463298;32;31418;-79
2023/10/09 00:42:21;;;;;;;0.05;0.00;;;;;;;13.77;41.68;100888.06;4464376;32;33850;-79
2023/10/09 00:44:49;;;;;;;0.00;0.00;;;;;;;13.74;40.78;100882.88;4474274;32;33934;-80
2023/10/09 00:47:20;;;;;;;0.20;0.20;;;;;;;13.82;40.72;100883.44;4459695;32;33319;-79
2023/10/09 00:50:00;;;;;;;0.10;0.10;;;;;;;13.67;41.13;100886.69;4459287;32;34236;-79
2023/10/09 00:52:39;;;;;;;0.20;0.20;;;;;;;13.57;41.93;100884.37;4461839;32;32764;-79
2023/10/09 00:55:13;;;;;;;0.05;0.05;;;;;;;13.71;41.94;100873.22;4473550;32;36424;-79
2023/10/09 00:57:56;;;;;;;0.73;0.73;;;;;;;13.73;42.11;100875.84;4463968;32;32820;-79
2023/10/09 01:05:52;;;;;;;0.00;0.00;;;;;;;13.81;42.49;100887.00;4462241;32;33225;-80
2023/10/09 01:08:43;;;;;;;0.20;0.20;;;;;;;13.79;43.12;100899.47;4474926;32;34503;-80
2023/10/09 01:11:18;;;;;;;0.00;0.00;;;;;;;13.85;42.76;100883.31;4461336;32;33687;-79
2023/10/09 01:16:17;;;;;;;0.35;0.20;;;;;;;13.84;43.28;100868.31;4473915;32;33949;-79
2023/10/09 01:18:49;;;;;;;0.00;0.00;;;;;;;13.88;44.02;100880.53;4474373;32;34029;-80
2023/10/09 01:21:25;;;;;;;0.00;0.00;;;;;;;13.80;44.28;100874.66;4460381;32;33113;-80
2023/10/09 01:24:09;;;;;;;3.30;0.17;;;;;;;13.86;44.18;100885.03;4468390;32;32120;-80
2023/10/09 01:26:46;;;;;;;0.20;0.20;;;;;;;13.74;44.53;100890.84;4471370;32;34727;-80
2023/10/09 01:29:19;;;;;;;0.00;0.00;;;;;;;14.05;44.04;100883.38;4462834;32;31600;-80
2023/10/09 01:31:55;;;;;;;0.00;0.00;;;;;;;14.33;43.24;100884.87;4462166;32;33442;-80
2023/10/09 01:34:38;;;;;;;0.10;0.08;;;;;;;14.33;41.92;100893.72;4462272;32;34634;-79
2023/10/09 01:37:25;;;;;;;0.00;0.00;;;;;;;14.00;42.95;100889.78;4472386;32;34677;-80
2023/10/09 01:40:22;;;;;;;0.00;0.00;;;;;;;13.98;43.35;100887.19;4473346;32;33577;-80
2023/10/09 01:42:47;;;;;;;0.00;0.00;;;;;;;13.60;44.72;100901.13;4466045;32;33175;-81
2023/10/09 01:47:51;;;;;;;0.17;0.15;;;;;;;13.88;44.01;100885.00;4472725;31;32590;-79
2023/10/09 01:50:22;;;;;;;0.05;0.05;;;;;;;14.00;42.87;100890.66;4476182;32;33423;-80
2023/10/09 01:52:51;;;;;;;0.00;0.00;;;;;;;13.68;43.73;100901.72;4476554;32;34032;-80
2023/10/09 01:55:39;;;;;;;0.08;0.08;;;;;;;13.64;44.03;100897.44;4474164;32;33301;-81
2023/10/09 01:58:27;;;;;;;0.00;0.00;;;;;;;13.63;44.00;100901.03;4462486;32;32940;-80
2023/10/09 02:00:55;;;;;;;0.35;0.35;;;;;;;13.73;43.07;100913.00;4462153;32;33826;-79
2023/10/09 02:03:24;;;;;;;0.00;0.00;;;;;;;13.60;44.04;100917.06;4473789;32;33214;-80
2023/10/09 02:05:53;;;;;;;0.00;0.00;;;;;;;13.67;44.19;100921.19;4475303;32;33222;-80
2023/10/09 02:08:35;;;;;;;3.00;0.30;;;;;;;13.73;44.42;100913.88;4460878;32;33555;-80
2023/10/09 02:11:03;;;;;;;0.15;0.15;;;;;;;13.71;44.53;100914.84;4472790;32;34609;-80
2023/10/09 02:13:34;;;;;;;0.22;0.22;;;;;;;13.67;44.57;100897.31;4460451;32;32256;-79
2023/10/09 02:16:14;;;;;;;0.80;0.65;;;;;;;13.51;45.45;100897.03;4477061;32;34344;-80
2023/10/09 02:19:07;;;;;;;0.00;0.00;;;;;;;13.86;44.19;100892.13;4462744;32;33258;-79
2023/10/09 02:21:41;;;;;;;0.00;0.00;;;;;;;13.74;44.27;100880.22;4460891;32;33554;-80
2023/10/09 02:24:09;;;;;;;0.17;0.17;;;;;;;13.68;45.02;100878.69;4475208;32;32714;-80
2023/10/09 02:31:46;;;;;;;0.57;0.57;;;;;;;13.66;43.84;100882.31;4478745;32;33959;-81
2023/10/09 02:34:24;;;;;;;0.00;0.00;;;;;;;13.68;43.15;100893.75;4461366;32;34098;-80
2023/10/09 02:36:57;;;;;;;0.00;0.00;;;;;;;13.45;41.32;100879.56;4473914;32;33813;-80
2023/10/09 02:39:26;;;;;;;0.00;0.00;;;;;;;13.55;43.33;100880.94;4473802;32;34354;-80
2023/10/09 02:42:20;;;;;;;0.47;0.15;;;;;;;13.57;45.05;100876.41;4460725;32;34512;-80
2023/10/09 02:44:50;;;;;;;0.05;0.05;;;;;;;13.74;45.17;100878.44;4472291;32;35256;-80
2023/10/09 02:47:24;;;;;;;0.10;0.10;;;;;;;13.37;45.91;100879.00;4472076;32;33149;-79
2023/10/09 02:49:51;;;;;;;0.00;0.00;;;;;;;13.28;46.05;100869.59;4462547;32;34478;-80
2023/10/09 02:52:24;;;;;;;0.15;0.15;;;;;;;13.50;45.03;100858.16;4462759;32;35283;-80
2023/10/09 02:54:59;;;;;;;0.00;0.00;;;;;;;13.43;44.69;100846.91;4473947;32;33705;-80
2023/10/09 02:57:36;;;;;;;0.00;0.00;;;;;;;13.57;45.06;100844.56;4463523;32;34264;-80
2023/10/09 03:00:29;;;;;;;0.00;0.00;;;;;;;13.52;45.42;100835.06;4462324;32;32041;-79
2023/10/09 03:02:59;;;;;;;0.00;0.00;;;;;;;13.44;44.71;100864.59;4474871;32;32427;-80
2023/10/09 03:05:28;;;;;;;0.98;0.17;;;;;;;13.43;44.48;100861.97;4464616;32;32476;-80
2023/10/09 03:07:57;;;;;;;0.00;0.00;;;;;;;13.46;44.93;100859.22;4476290;32;33355;-80
2023/10/09 03:10:25;;;;;;;0.25;0.25;;;;;;;13.56;45.48;100861.44;4460634;32;34937;-80
2023/10/09 03:12:53;;;;;;;0.30;0.30;;;;;;;13.60;45.04;100872.81;4474196;32;33266;-80
2023/10/09 03:15:21;;;;;;;0.15;0.15;;;;;;;13.36;44.49;100864.00;4451388;32;32600;-80
2023/10/09 03:17:51;;;;;;;0.05;0.05;;;;;;;13.39;44.21;100844.44;4474230;32;34099;-81
2023/10/09 03:20:19;;;;;;;0.00;0.00;;;;;;;13.42;44.00;100833.72;4462347;32;32766;-81
2023/10/09 03:22:48;;;;;;;0.00;0.00;;;;;;;13.57;44.23;100838.41;4474530;32;33917;-81
2023/10/09 03:25:16;;;;;;;0.00;0.00;;;;;;;13.41;44.41;100846.13;4464251;32;31516;-81
2023/10/09 03:27:45;;;;;;;0.65;0.65;;;;;;;13.37;44.43;100836.53;4460923;32;33869;-82
2023/10/09 03:30:17;;;;;;;3.22;0.20;;;;;;;13.16;43.98;100837.34;4462086;32;32983;-81
2023/10/09 03:32:50;;;;;;;0.00;0.00;;;;;;;13.05;45.03;100841.28;4466005;32;34583;-82
2023/10/09 03:35:24;;;;;;;0.00;0.00;;;;;;;13.08;44.85;100830.53;4459758;32;33149;-82
2023/10/09 03:37:57;;;;;;;0.00;0.00;;;;;;;13.13;45.19;100832.16;4463116;32;33382;-82
2023/10/09 03:40:25;;;;;;;0.20;0.20;;;;;;;13.04;44.84;100836.87;4475403;32;34642;-81
2023/10/09 03:42:53;;;;;;;0.00;0.00;;;;;;;13.35;44.71;100848.16;4461988;32;34626;-82
2023/10/09 03:45:27;;;;;;;0.00;0.00;;;;;;;13.45;44.48;100844.22;4463882;32;32481;-82
2023/10/09 03:48:02;;;;;;;0.95;0.32;;;;;;;13.28;44.70;100852.81;4473187;32;33873;-81
2023/10/09 03:50:35;;;;;;;0.43;0.22;;;;;;;13.28;44.60;100851.00;4463117;32;33986;-81
2023/10/09 03:53:07;;;;;;;0.05;0.05;;;;;;;13.25;45.50;100842.34;4473590;32;33834;-81
2023/10/09 03:55:37;;;;;;;0.10;0.00;;;;;;;13.44;45.27;100848.66;4474508;32;33215;-81
2023/10/09 03:58:06;;;;;;;0.22;0.20;;;;;;;13.42;44.47;100837.22;4462278;32;33109;-80
2023/10/09 04:00:46;;;;;;;0.22;0.22;;;;;;;13.60;44.04;100833.00;4475204;32;33547;-81
2023/10/09 04:03:15;;;;;;;0.20;0.20;;;;;;;13.43;44.19;100832.78;4464531;32;33597;-81
2023/10/09 04:05:44;;;;;;;0.70;0.70;;;;;;;13.50;42.75;100835.16;4474360;32;33715;-81
2023/10/09 04:08:13;;;;;;;0.05;0.05;;;;;;;13.54;42.22;100823.50;4464998;32;32905;-81
2023/10/09 04:10:50;;;;;;;0.00;0.00;;;;;;;13.41;42.42;100826.69;4462844;32;33610;-82
2023/10/09 04:13:22;;;;;;;0.05;0.05;;;;;;;13.21;41.73;100836.25;4450518;32;32974;-81
2023/10/09 04:15:53;;;;;;;0.00;0.00;;;;;;;13.24;41.34;100840.59;4456684;32;33137;-82
2023/10/09 04:18:27;;;;;;;2.70;0.68;;;;;;;13.43;41.01;100819.50;4460934;32;33838;-81
2023/10/09 04:24:41;;;;;;;2.75;1.27;;;;;;;13.49;40.90;100820.16;4444188;32;33796;-81
2023/10/09 04:26:56;;;;;;;0.50;0.50;;;;;;;13.55;40.68;100827.88;4464625;32;32456;-82
2023/10/09 04:29:27;;;;;;;0.00;0.00;;;;;;;13.50;40.25;100816.56;4461949;32;34831;-81
2023/10/09 04:31:56;;;;;;;1.30;0.43;;;;;;;13.61;40.49;100812.63;4462100;32;33974;-81
2023/10/09 04:34:37;;;;;;;0.00;0.00;;;;;;;13.49;40.56;100814.84;4461102;32;33578;-81
2023/10/09 04:39:48;;;;;;;0.52;0.10;;;;;;;13.55;40.75;100798.69;4477819;32;33423;-80
2023/10/09 04:42:26;;;;;;;0.05;0.03;;;;;;;13.21;41.28;100806.22;4450542;32;33911;-81
2023/10/09 04:47:37;;;;;;;0.10;0.10;;;;;;;13.40;41.04;100796.66;4465457;32;33570;-81
2023/10/09 04:50:23;;;;;;;0.20;0.20;;;;;;;13.35;41.38;100792.44;4462477;32;32687;-80
2023/10/09 04:55:57;;;;;;;1.70;0.62;;;;;;;13.51;41.37;100791.75;4474301;32;34626;-80
2023/10/09 04:58:27;;;;;;;1.08;0.68;;;;;;;13.20;41.60;100786.78;4468902;32;32950;-81
2023/10/09 05:06:32;;;;;;;0.10;0.08;;;;;;;13.45;41.47;100775.25;4473038;32;34212;-79
2023/10/09 05:09:12;;;;;;;0.00;0.00;;;;;;;13.54;41.26;100777.53;4462829;32;32237;-80
2023/10/09 05:14:26;;;;;;;0.10;0.10;;;;;;;13.48;40.79;100768.03;4482120;31;35292;-79
2023/10/09 05:16:55;;;;;;;0.20;0.20;;;;;;;13.41;40.99;100774.50;4459277;32;34349;-79
2023/10/09 05:19:41;;;;;;;0.00;0.00;;;;;;;13.07;40.98;100774.91;4456944;32;31343;-79
2023/10/09 05:24:59;;;;;;;0.00;0.00;;;;;;;13.52;40.91;100761.63;4470968;32;33694;-80
2023/10/09 05:27:45;;;;;;;0.13;0.13;;;;;;;13.42;41.45;100768.25;4471864;32;33577;-80
2023/10/09 05:30:26;;;;;;;0.00;0.00;;;;;;;13.60;40.89;100769.31;4445264;32;33466;-80
2023/10/09 05:32:58;;;;;;;2.35;0.43;;;;;;;13.87;40.91;100772.63;4458971;32;33975;-80
2023/10/09 05:35:54;;;;;;;0.83;0.23;;;;;;;13.80;40.86;100755.22;4471655;32;33105;-80
2023/10/09 05:38:25;;;;;;;0.00;0.00;;;;;;;13.71;40.92;100761.75;4464422;32;33196;-80
2023/10/09 05:41:12;;;;;;;0.20;0.20;;;;;;;13.55;41.08;100771.28;4460051;32;31509;-80
2023/10/09 05:46:35;;;;;;;8.13;0.65;;;;;;;13.60;40.94;100779.06;4471347;32;34010;-80
2023/10/09 05:49:19;;;;;;;0.00;0.00;;;;;;;13.70;39.90;100797.19;4463451;31;32868;-80
2023/10/09 05:51:53;;;;;;;0.30;0.22;;;;;;;13.81;40.23;100807.38;4473787;31;35846;-80
2023/10/09 05:55:10;;;;;;;0.10;0.10;;;;;;;14.19;39.62;100802.25;4460986;32;32662;-80
2023/10/09 06:03:23;;;;;;;0.00;0.00;;;;;;;13.71;40.40;100768.84;4470053;32;32728;-79
2023/10/09 06:05:41;;;;;;;0.73;0.25;;;;;;;13.92;40.25;100791.88;4470102;32;35598;-80
2023/10/09 06:08:12;;;;;;;0.62;0.62;;;;;;;13.85;39.87;100769.16;4458823;32;33050;-80
2023/10/09 06:10:41;;;;;;;1.70;0.57;;;;;;;14.08;39.95;100761.06;4451956;32;33376;-84
2023/10/09 06:13:37;;;;;;;0.10;0.00;;;;;;;14.03;40.24;100752.44;4457680;32;34494;-85
2023/10/09 06:16:09;;;;;;;0.00;0.00;;;;;;;13.74;40.37;100752.81;4458916;32;33394;-84
2023/10/09 06:18:42;;;;;;;0.28;0.25;;;;;;;13.87;41.53;100745.22;4447111;32;33531;-83
2023/10/09 06:24:14;;;;;;;1.45;0.52;;;;;;;14.03;39.48;100738.31;4473002;32;33154;-80
2023/10/09 06:29:35;;;;;;;0.00;0.00;;;;;;;14.05;38.59;100747.06;4473498;32;34347;-80
2023/10/09 06:34:52;;;;;;;0.00;0.00;;;;;;;14.30;38.22;100728.28;4461916;32;33761;-80
2023/10/09 06:45:16;;;;;;;0.00;0.00;;;;;;;14.14;37.11;100738.69;4471894;32;33577;-80
2023/10/09 06:48:09;;;;;;;0.05;0.05;;;;;;;14.14;37.01;100748.47;4449661;32;33206;-80
2023/10/09 06:54:37;;;;;;;0.35;0.35;;;;;;;14.58;37.47;100734.12;4450336;32;31826;-80
2023/10/09 06:59:21;;;;;;;0.10;0.10;;;;;;;14.47;37.42;100736.34;4459552;32;32568;-80
2023/10/09 07:04:48;;;;;;;0.00;0.00;;;;;;;14.27;36.34;100723.94;4444203;32;33189;-80
2023/10/09 07:07:20;;;;;;;0.00;0.00;;;;;;;14.32;36.24;100711.31;4476014;32;34086;-80
2023/10/09 07:12:42;;;;;;;0.00;0.00;;;;;;;14.27;35.80;100701.84;4473484;32;33610;-80
2023/10/09 07:18:18;;;;;;;0.20;0.20;;;;;;;14.14;35.53;100700.66;4475521;32;33978;-80
2023/10/09 07:20:58;;;;;;;4.75;0.47;;;;;;;14.06;35.24;100709.84;4473504;32;33418;-80
2023/10/09 07:23:32;;;;;;;1.02;0.32;;;;;;;14.17;34.77;100697.87;4464181;32;33746;-80
2023/10/09 07:26:17;;;;;;;0.17;0.15;;;;;;;14.33;35.70;100696.25;4471679;32;34493;-80
2023/10/09 07:28:48;;;;;;;0.10;0.10;;;;;;;14.25;36.13;100701.06;4452638;32;33712;-80
2023/10/09 07:31:27;;;;;;;0.00;0.00;;;;;;;14.31;35.18;100692.81;4462840;32;33046;-81
2023/10/09 07:33:57;;;;;;;0.28;0.28;;;;;;;14.36;35.16;100682.84;4462570;32;32655;-81
2023/10/09 07:36:34;;;;;;;0.80;0.10;;;;;;;14.08;34.69;100670.78;4472318;32;33190;-81
2023/10/09 07:39:15;;;;;;;0.30;0.10;;;;;;;14.24;34.77;100655.03;4462743;32;33715;-81
2023/10/09 07:41:56;;;;;;;0.00;0.00;;;;;;;13.93;35.17;100650.22;4457727;32;34413;-81
2023/10/09 07:44:36;;;;;;;0.30;0.22;;;;;;;14.00;35.53;100626.91;4465184;32;34306;-81
2023/10/09 07:47:18;;;;;;;0.08;0.08;;;;;;;13.86;35.38;100624.84;4474110;32;32621;-81
2023/10/09 07:49:53;;;;;;;0.75;0.75;;;;;;;14.00;35.30;100613.63;4464262;32;33338;-81
2023/10/09 07:52:21;;;;;;;0.00;0.00;;;;;;;13.79;35.44;100610.16;4476547;32;33793;-81
2023/10/09 07:54:49;;;;;;;0.00;0.00;;;;;;;13.69;35.14;100595.56;4462572;32;34722;-80
2023/10/09 07:57:17;;;;;;;1.25;0.35;;;;;;;13.98;35.17;100589.81;4460104;32;33555;-80
2023/10/09 07:59:54;;;;;;;0.20;0.20;;;;;;;14.07;35.08;100594.69;4461534;32;33294;-81
2023/10/09 08:02:31;;;;;;;6.22;2.20;;;;;;;14.22;34.28;100595.78;4460399;32;33542;-81
2023/10/09 08:05:06;;;;;;;0.10;0.10;;;;;;;14.03;34.27;100593.13;4474877;32;33657;-81
2023/10/09 08:07:37;;;;;;;0.05;0.05;;;;;;;14.05;34.59;100590.38;4445534;32;33859;-80
2023/10/09 08:17:53;;;;;;;0.20;0.20;;;;;;;14.07;33.50;100592.06;4471318;32;33616;-81
2023/10/09 08:23:28;;;;;;;0.10;0.10;;;;;;;14.63;33.48;100578.88;4459897;32;33076;-81
2023/10/09 08:26:15;;;;;;;0.57;0.57;;;;;;;14.69;32.26;100570.59;4451153;32;33195;-81
2023/10/09 08:28:45;;;;;;;2.90;0.43;;;;;;;14.60;32.17;100563.94;4457642;32;32801;-81
2023/10/09 08:34:01;;;;;;;0.00;0.00;;;;;;;14.50;32.97;100560.00;4459210;32;32135;-80
2023/10/09 08:36:36;;;;;;;1.87;0.10;;;;;;;14.22;32.76;100563.06;4449354;32;33187;-80
2023/10/09 08:39:25;;;;;;;0.00;0.00;;;;;;;14.38;32.22;100561.41;4450372;32;32670;-80
2023/10/09 08:41:58;;;;;;;0.00;0.00;;;;;;;14.45;32.37;100546.03;4472582;32;32180;-81
2023/10/09 08:44:27;;;;;;;0.00;0.00;;;;;;;14.42;33.18;100549.69;4461574;32;33673;-81
2023/10/09 08:46:55;;;;;;;0.05;0.05;;;;;;;14.82;32.37;100547.81;4458676;32;32976;-80
2023/10/09 08:49:25;;;;;;;0.28;0.20;;;;;;;14.88;32.32;100544.84;4450838;32;32928;-83
2023/10/09 08:51:53;;;;;;;0.00;0.00;;;;;;;14.89;32.23;100546.56;4471794;32;34117;-81
2023/10/09 08:54:21;;;;;;;0.32;0.25;;;;;;;15.03;32.20;100536.09;4470791;32;34556;-81
2023/10/09 08:56:51;;;;;;;0.00;0.00;;;;;;;14.68;31.42;100539.66;4472112;32;33600;-82
2023/10/09 08:59:20;;;;;;;4.00;0.25;;;;;;;15.22;30.93;100521.84;4471887;32;34152;-82
2023/10/09 09:01:58;;;;;;;0.13;0.13;;;;;;;15.06;31.01;100537.75;4471382;32;31966;-82
2023/10/09 09:04:40;;;;;;;0.00;0.00;;;;;;;15.03;31.03;100532.56;4469974;32;33818;-82
2023/10/09 09:07:28;;;;;;;1.47;0.20;;;;;;;15.27;30.81;100525.13;4460787;32;34718;-81
2023/10/09 09:10:21;;;;;;;0.00;0.00;;;;;;;15.54;30.89;100528.19;4449572;32;33220;-81
2023/10/09 09:13:00;;;;;;;3.90;0.90;;;;;;;16.02;30.77;100513.19;4471068;32;32591;-82
2023/10/09 09:15:28;;;;;;;0.00;0.00;;;;;;;15.96;30.79;100490.44;4449053;32;32835;-81
2023/10/09 09:18:08;;;;;;;0.00;0.00;;;;;;;16.29;30.62;100487.69;4458652;32;33195;-81
2023/10/09 09:20:45;;;;;;;0.03;0.03;;;;;;;16.28;29.78;100498.41;4446588;32;33195;-81
2023/10/09 09:23:13;;;;;;;0.00;0.00;;;;;;;16.58;29.74;100480.69;4471076;32;34089;-82
2023/10/09 09:25:50;;;;;;;0.15;0.15;;;;;;;16.94;30.39;100492.84;4464124;32;35846;-81
2023/10/09 09:28:21;;;;;;;0.00;0.00;;;;;;;16.36;30.24;100496.19;4460489;32;33513;-81
2023/10/09 09:30:51;;;;;;;0.17;0.10;;;;;;;16.85;30.61;100488.94;4459162;32;33071;-81
2023/10/09 09:33:45;;;;;;;0.00;0.00;;;;;;;17.08;29.40;100490.22;4475328;32;34014;-81
2023/10/09 09:36:12;;;;;;;0.25;0.25;;;;;;;17.30;29.30;100480.94;4461169;32;33420;-81
2023/10/09 09:38:47;;;;;;;1.80;0.77;;;;;;;17.20;29.06;100477.09;4468999;32;33621;-82
2023/10/09 09:41:25;;;;;;;0.00;0.00;;;;;;;16.85;28.85;100482.72;4470967;32;33068;-81
2023/10/09 09:44:00;;;;;;;0.30;0.30;;;;;;;16.76;28.94;100488.59;4468927;32;32682;-82
2023/10/09 09:46:37;;;;;;;0.57;0.28;;;;;;;17.09;28.91;100485.72;4464391;32;32077;-81
2023/10/09 09:49:07;;;;;;;0.00;0.00;;;;;;;17.08;28.95;100484.03;4446479;32;34347;-82
2023/10/09 09:51:35;;;;;;;0.00;0.00;;;;;;;17.00;29.93;100479.16;4458561;32;34535;-82
2023/10/09 09:54:08;;;;;;;0.55;0.55;;;;;;;16.74;30.13;100471.81;4449089;32;32689;-82
2023/10/09 09:56:38;;;;;;;0.30;0.30;;;;;;;17.18;29.01;100468.31;4458975;32;34524;-82
2023/10/09 09:59:08;;;;;;;0.40;0.22;;;;;;;17.33;28.96;100468.25;4449882;32;32762;-81
2023/10/09 10:01:39;;;;;;;0.00;0.00;;;;;;;17.27;29.46;100463.28;4461822;32;35333;-82
2023/10/09 10:04:20;;;;;;;0.43;0.30;;;;;;;17.59;28.66;100463.13;4453585;32;32587;-82
2023/10/09 10:06:50;;;;;;;0.75;0.75;;;;;;;17.97;28.95;100452.72;4448779;32;35443;-82
2023/10/09 10:09:40;;;;;;;1.95;0.57;;;;;;;17.69;28.05;100458.06;4463896;32;34037;-82
2023/10/09 10:12:11;;;;;;;0.00;0.00;;;;;;;17.80;28.32;100448.47;4463252;32;32738;-82
2023/10/09 10:14:57;;;;;;;2.30;1.27;;;;;;;18.03;27.60;100430.94;4446863;32;32751;-82
2023/10/09 10:17:27;;;;;;;0.35;0.30;;;;;;;18.30;28.12;100408.72;4449154;32;33955;-82
2023/10/09 10:22:50;;;;;;;1.45;0.20;;;;;;;18.42;27.82;100359.78;4460147;32;33299;-81
2023/10/09 10:25:32;;;;;;;;;;;;;;;18.55;28.57;100379.37;4461763;32;33586;-82
2023/10/09 10:28:28;;;;;;;0.10;0.10;;;;;;;18.28;27.93;100381.25;4458325;32;32743;-82
2023/10/09 10:31:00;;;;;;;0.37;0.20;;;;;;;18.20;28.56;100362.19;4422126;32;35873;-82
2023/10/09 10:33:56;;;;;;;0.00;0.00;;;;;;;18.36;28.28;100352.16;4434630;32;34916;-82
2023/10/09 10:36:26;;;;;;;0.08;0.08;;;;;;;18.31;27.52;100343.59;4456601;32;34416;-82
2023/10/09 10:41:59;;;;;;;2.37;0.43;;;;;;;17.59;28.98;100351.81;4432051;32;33170;-82
2023/10/09 10:44:33;;;;;;;0.00;0.00;;;;;;;18.15;29.23;100349.13;4407646;32;34928;-82
2023/10/09 10:47:15;;;;;;;0.00;0.00;;;;;;;18.35;28.21;100329.06;4422915;32;32801;-82
2023/10/09 10:49:44;;;;;;;0.00;0.00;;;;;;;18.39;27.88;100320.75;4422630;32;33071;-81
2023/10/09 10:52:22;;;;;;;0.10;0.03;;;;;;;18.52;28.38;100309.22;4434963;32;33193;-82
2023/10/09 10:55:17;;;;;;;0.22;0.22;;;;;;;18.38;28.46;100319.03;4441932;32;34280;-82
2023/10/09 10:58:00;;;;;;;0.13;0.10;;;;;;;18.68;27.02;100299.16;4446901;32;34648;-82
2023/10/09 11:03:29;;;;;;;2.45;0.52;;;;;;;18.97;27.23;100304.31;4461624;32;34561;-85
2023/10/09 11:06:20;;;;;;;2.12;0.05;;;;;;;19.00;27.04;100299.62;4485560;31;34597;-85
2023/10/09 11:08:55;;;;;;;0.20;0.10;;;;;;;19.35;26.69;100302.44;4451815;32;32263;-81
2023/10/09 11:11:23;;;;;;;0.32;0.32;;;;;;;19.75;26.71;100272.78;4458073;32;33316;-81
2023/10/09 11:13:58;;;;;;;5.07;0.10;;;;;;;19.91;26.76;100248.38;4459937;32;33652;-81
2023/10/09 11:16:41;;;;;;;0.37;0.37;;;;;;;20.05;26.57;100253.53;4472200;32;34549;-82
2023/10/09 11:19:40;;;;;;;1.65;0.43;;;;;;;20.00;26.44;100279.00;4462976;32;33552;-82
2023/10/09 11:24:35;;;;;;;;;;;;;;;20.31;25.76;100266.75;4473463;32;33998;-81
2023/10/09 11:27:07;;;;;;;0.10;0.10;;;;;;;20.53;25.39;100277.59;4447416;32;34374;-81
2023/10/09 11:32:22;;;;;;;9.25;3.33;;;;;;;20.19;25.79;100239.94;4476395;32;34004;-80
2023/10/09 11:34:54;;;;;;;2.22;1.12;;;;;;;20.75;26.12;100260.69;4461730;32;33228;-80
2023/10/09 11:39:58;;;;;;;0.37;0.32;;;;;;;20.96;25.90;100266.16;4473643;32;33223;-80
2023/10/09 11:42:35;;;;;;;0.10;0.10;;;;;;;20.81;25.35;100280.81;4447891;32;32988;-80
2023/10/09 11:45:23;;;;;;;0.22;0.22;;;;;;;21.28;25.01;100284.22;4473657;32;33482;-80
2023/10/09 11:47:58;;;;;;;0.85;0.43;;;;;;;21.31;26.49;100294.72;4461064;32;33231;-79
2023/10/09 11:50:43;;;;;;;0.75;0.20;;;;;;;20.77;26.89;100314.22;4465678;32;32960;-80
2023/10/09 11:55:52;;;;;;;0.35;0.20;;;;;;;20.38;27.69;100289.47;4464004;32;32965;-79
2023/10/09 11:58:24;;;;;;;0.10;0.10;;;;;;;20.04;28.60;100292.03;4474399;32;32765;-80
2023/10/09 12:00:57;;;;;;;0.00;0.00;;;;;;;19.89;28.41;100277.09;4462395;32;33213;-80
2023/10/09 12:03:32;;;;;;;0.00;0.00;;;;;;;19.90;28.62;100265.41;4446357;32;32862;-80
2023/10/09 12:06:12;;;;;;;0.10;0.10;;;;;;;19.84;28.92;100257.81;4474062;32;34813;-80
2023/10/09 12:08:42;;;;;;;0.17;0.17;;;;;;;19.79;29.03;100251.94;4461789;32;31903;-80
2023/10/09 12:11:11;;;;;;;0.22;0.10;;;;;;;19.92;28.67;100252.75;4477886;32;32991;-80
2023/10/09 12:13:42;;;;;;;0.00;0.00;;;;;;;19.84;28.98;100264.03;4459159;32;33517;-81
2023/10/09 12:16:10;;;;;;;0.00;0.00;;;;;;;19.83;30.26;100248.06;4461531;32;33278;-80
2023/10/09 12:18:39;;;;;;;0.00;0.00;;;;;;;20.00;30.04;100230.75;4460923;32;32398;-80
2023/10/09 12:21:07;;;;;;;0.00;0.00;;;;;;;20.18;30.32;100208.75;4473775;32;33719;-80
2023/10/09 12:23:40;;;;;;;0.55;0.55;;;;;;;19.83;31.36;100205.19;4472988;32;33053;-80
2023/10/09 12:26:14;;;;;;;0.10;0.10;;;;;;;19.61;32.58;100204.16;4471555;32;33371;-80
2023/10/09 12:28:49;;;;;;;1.77;0.75;;;;;;;19.50;32.93;100204.03;4449251;32;34339;-80
2023/10/09 12:31:21;;;;;;;0.22;0.22;;;;;;;20.18;32.63;100205.22;4471042;32;33642;-80
2023/10/09 12:33:50;;;;;;;0.00;0.00;;;;;;;19.63;34.00;100212.91;4472520;32;33496;-80
2023/10/09 12:36:19;;;;;;;4.43;0.85;;;;;;;19.87;33.52;100209.38;4460146;32;32942;-80
2023/10/09 12:38:58;;;;;;;0.03;0.03;;;;;;;20.15;33.67;100197.38;4473789;32;31934;-80
2023/10/09 12:41:28;;;;;;;0.85;0.40;;;;;;;19.73;32.49;100185.44;4457435;32;34932;-80
2023/10/09 12:43:59;;;;;;;1.42;0.50;;;;;;;19.85;33.61;100179.16;4461071;32;33448;-80
2023/10/09 12:46:32;;;;;;;;;;;;;;;19.70;33.82;100191.88;4460280;32;33824;-80
2023/10/09 12:49:01;;;;;;;0.00;0.00;;;;;;;19.06;33.34;100205.50;4460094;32;33448;-80
2023/10/09 12:51:32;;;;;;;4.20;1.00;;;;;;;19.63;34.74;100204.88;4459360;32;33411;-80
2023/10/09 12:54:01;;;;;;;0.32;0.32;;;;;;;20.06;34.64;100209.66;4458907;32;33337;-80
2023/10/09 12:56:38;;;;;;;1.25;0.52;;;;;;;20.36;34.33;100192.16;4474033;32;33337;-80
2023/10/09 12:59:07;;;;;;;0.03;0.00;;;;;;;20.08;34.66;100194.34;4475160;32;33404;-80
2023/10/09 13:01:42;;;;;;;0.35;0.35;;;;;;;20.31;33.82;100189.00;4462557;32;33799;-80
2023/10/09 13:04:11;;;;;;;0.00;0.00;;;;;;;20.32;35.43;100177.28;4467968;32;35504;-80
2023/10/09 13:06:45;;;;;;;0.25;0.15;;;;;;;20.19;35.48;100169.37;4471620;32;34092;-80
2023/10/09 13:09:15;;;;;;;1.05;0.73;;;;;;;20.43;35.78;100174.62;4462829;32;31866;-80
2023/10/09 13:11:48;;;;;;;0.00;0.00;;;;;;;20.01;39.58;100163.59;4462645;32;33674;-80
2023/10/09 13:14:21;;;;;;;0.00;0.00;;;;;;;20.02;37.04;100189.44;4452371;32;33100;-80
2023/10/09 13:16:50;;;;;;;0.85;0.77;;;;;;;19.79;38.93;100187.66;4461701;32;32184;-80
2023/10/09 13:19:18;;;;;;;0.15;0.15;;;;;;;19.29;38.65;100173.53;4459363;32;33855;-80
2023/10/09 13:21:48;;;;;;;0.10;0.10;;;;;;;19.34;39.36;100163.31;4466761;32;32695;-80
2023/10/09 13:24:16;;;;;;;1.30;0.85;;;;;;;19.28;39.53;100169.16;4475236;32;34742;-80
2023/10/09 13:26:46;;;;;;;0.00;0.00;;;;;;;19.88;37.94;100173.56;4455197;32;33809;-81
2023/10/09 13:29:22;;;;;;;0.85;0.50;;;;;;;19.94;38.22;100157.88;4461632;32;33524;-81
2023/10/09 13:31:52;;;;;;;0.30;0.30;;;;;;;19.68;40.21;100164.34;4474248;32;33389;-80
2023/10/09 13:34:20;;;;;;;0.10;0.10;;;;;;;19.62;39.25;100170.19;4461669;32;33138;-80
2023/10/09 13:36:53;;;;;;;0.22;0.13;;;;;;;19.57;40.38;100159.78;4462239;32;33145;-80
2023/10/09 13:39:24;;;;;;;0.45;0.25;;;;;;;19.50;40.93;100171.91;4473978;32;33071;-81
2023/10/09 13:42:04;;;;;;;0.13;0.05;;;;;;;19.39;42.07;100178.06;4466148;32;31929;-81
2023/10/09 13:44:33;;;;;;;0.52;0.52;;;;;;;19.54;42.95;100186.78;4464770;32;34259;-82
2023/10/09 13:47:05;;;;;;;0.00;0.00;;;;;;;19.44;43.55;100177.72;4454848;32;33977;-81
2023/10/09 13:49:36;;;;;;;0.13;0.13;;;;;;;19.40;44.73;100168.22;4460786;32;33900;-81
2023/10/09 13:52:06;;;;;;;0.00;0.00;;;;;;;19.42;45.42;100167.16;4473320;32;34074;-81
2023/10/09 13:57:07;;;;;;;0.20;0.20;;;;;;;19.37;47.92;100163.06;4459894;32;32937;-81
2023/10/09 13:59:36;;;;;;;0.52;0.52;;;;;;;19.27;48.22;100152.19;4465407;32;33773;-81